Terminal Aerodrome Forecast
Issued by NWS

Current Version | Previous Version | Text Only | Print | Product List | Glossary Off
Versions: 1 2 3 4 5 6 7 8 9 10 11 12 13 14 15

000
FTUS41 KILN 150500
TAFLCK
TAF
KLCK 150523Z 1506/1606 32014G22KT 4SM -RA BR OVC008
     FM150800 32014G24KT 1SM -SN OVC006
     FM151100 33014G22KT 4SM -SN OVC008
     FM151400 32014G22KT P6SM OVC012
     FM151800 31014G22KT P6SM BKN035
     FM160000 32008KT P6SM SCT040
     FM160200 VRB03KT P6SM SKC=

USA.gov is the U.S. government's official web portal to all federal, state and local government web resources and services.